sensor_id;sensor_type;location;lat;lon;timestamp;temperature;humidity
33269;DHT22;19640;50.944;5.260;2024-01-15T00:00:28;2.50;99.90
33269;DHT22;19640;50.944;5.260;2024-01-15T00:02:54;2.50;99.90
33269;DHT22;19640;50.944;5.260;2024-01-15T00:05:20;2.60;99.90
33269;DHT22;19640;50.944;5.260;2024-01-15T00:07:45;2.60;99.90
33269;DHT22;19640;50.944;5.260;2024-01-15T00:10:11;2.70;99.90
33269;DHT22;19640;50.944;5.260;2024-01-15T00:12:37;2.60;99.90
33269;DHT22;19640;50.944;5.260;2024-01-15T00:15:03;2.50;99.90
33269;DHT22;19640;50.944;5.260;2024-01-15T00:17:28;2.40;99.90
33269;DHT22;19640;50.944;5.260;2024-01-15T00:19:54;2.50;99.90
33269;DHT22;19640;50.944;5.260;2024-01-15T00:22:20;2.70;99.90
33269;DHT22;19640;50.944;5.260;2024-01-15T00:24:45;2.70;99.90
33269;DHT22;19640;50.944;5.260;2024-01-15T00:27:11;2.70;99.90
33269;DHT22;19640;50.944;5.260;2024-01-15T00:29:37;2.60;99.90
33269;DHT22;19640;50.944;5.260;2024-01-15T00:32:02;2.50;99.90
33269;DHT22;19640;50.944;5.260;2024-01-15T00:34:28;2.30;99.90
33269;DHT22;19640;50.944;5.260;2024-01-15T00:36:54;2.20;99.90
33269;DHT22;19640;50.944;5.260;2024-01-15T00:39:19;2.00;99.90
33269;DHT22;19640;50.944;5.260;2024-01-15T00:41:46;2.10;99.90
33269;DHT22;19640;50.944;5.260;2024-01-15T00:44:11;2.10;99.90
33269;DHT22;19640;50.944;5.260;2024-01-15T00:46:44;2.10;99.90
33269;DHT22;19640;50.944;5.260;2024-01-15T00:49:11;2.10;99.90
33269;DHT22;19640;50.944;5.260;2024-01-15T00:51:37;1.90;99.90
33269;DHT22;19640;50.944;5.260;2024-01-15T00:54:03;2.00;99.90
33269;DHT22;19640;50.944;5.260;2024-01-15T00:56:28;1.80;99.90
33269;DHT22;19640;50.944;5.260;2024-01-15T00:58:54;1.80;99.90
33269;DHT22;19640;50.944;5.260;2024-01-15T01:01:20;1.80;99.90
33269;DHT22;19640;50.944;5.260;2024-01-15T01:03:45;1.80;99.90
33269;DHT22;19640;50.944;5.260;2024-01-15T01:06:11;1.80;99.90
33269;DHT22;19640;50.944;5.260;2024-01-15T01:08:37;1.70;99.90
33269;DHT22;19640;50.944;5.260;2024-01-15T01:11:02;1.70;99.90
33269;DHT22;19640;50.944;5.260;2024-01-15T01:13:28;1.70;99.90
33269;DHT22;19640;50.944;5.260;2024-01-15T01:15:54;1.70;99.90
33269;DHT22;19640;50.944;5.260;2024-01-15T01:18:19;1.80;99.90
33269;DHT22;19640;50.944;5.260;2024-01-15T01:20:45;1.80;99.90
33269;DHT22;19640;50.944;5.260;2024-01-15T01:23:11;1.90;99.90
33269;DHT22;19640;50.944;5.260;2024-01-15T01:25:36;1.90;99.90
33269;DHT22;19640;50.944;5.260;2024-01-15T01:28:02;2.10;99.90
33269;DHT22;19640;50.944;5.260;2024-01-15T01:30:28;2.10;99.90
33269;DHT22;19640;50.944;5.260;2024-01-15T01:32:53;2.20;99.90
33269;DHT22;19640;50.944;5.260;2024-01-15T01:35:19;2.00;99.90
33269;DHT22;19640;50.944;5.260;2024-01-15T01:37:45;2.20;99.90
33269;DHT22;19640;50.944;5.260;2024-01-15T01:40:10;2.20;99.90
33269;DHT22;19640;50.944;5.260;2024-01-15T01:42:36;2.10;99.90
33269;DHT22;19640;50.944;5.260;2024-01-15T01:45:02;2.10;99.90
33269;DHT22;19640;50.944;5.260;2024-01-15T01:47:29;2.00;99.90
33269;DHT22;19640;50.944;5.260;2024-01-15T01:49:55;1.80;99.90
33269;DHT22;19640;50.944;5.260;2024-01-15T01:52:20;1.90;99.90
33269;DHT22;19640;50.944;5.260;2024-01-15T01:54:46;1.90;99.90
33269;DHT22;19640;50.944;5.260;2024-01-15T01:57:12;2.10;99.90
33269;DHT22;19640;50.944;5.260;2024-01-15T01:59:39;2.30;99.90
33269;DHT22;19640;50.944;5.260;2024-01-15T02:02:05;2.30;99.90
33269;DHT22;19640;50.944;5.260;2024-01-15T02:04:31;2.30;99.90
33269;DHT22;19640;50.944;5.260;2024-01-15T02:06:59;2.40;99.90
33269;DHT22;19640;50.944;5.260;2024-01-15T02:09:25;2.70;99.90
33269;DHT22;19640;50.944;5.260;2024-01-15T02:11:51;2.50;99.90
33269;DHT22;19640;50.944;5.260;2024-01-15T02:14:17;2.60;99.90
33269;DHT22;19640;50.944;5.260;2024-01-15T02:16:43;2.40;99.90
33269;DHT22;19640;50.944;5.260;2024-01-15T02:19:15;2.20;99.90
33269;DHT22;19640;50.944;5.260;2024-01-15T02:21:41;2.20;99.90
33269;DHT22;19640;50.944;5.260;2024-01-15T02:24:07;2.20;99.90
33269;DHT22;19640;50.944;5.260;2024-01-15T02:26:32;2.10;99.90
33269;DHT22;19640;50.944;5.260;2024-01-15T02:29:01;2.00;99.90
33269;DHT22;19640;50.944;5.260;2024-01-15T02:31:27;2.00;99.90
33269;DHT22;19640;50.944;5.260;2024-01-15T02:33:53;2.10;99.90
33269;DHT22;19640;50.944;5.260;2024-01-15T02:36:19;2.00;99.90
33269;DHT22;19640;50.944;5.260;2024-01-15T02:38:44;2.00;99.90
33269;DHT22;19640;50.944;5.260;2024-01-15T02:41:10;2.10;99.90
33269;DHT22;19640;50.944;5.260;2024-01-15T02:43:36;1.90;99.90
33269;DHT22;19640;50.944;5.260;2024-01-15T02:46:01;1.90;99.90
33269;DHT22;19640;50.944;5.260;2024-01-15T02:48:27;2.00;99.90
33269;DHT22;19640;50.944;5.260;2024-01-15T02:50:53;1.90;99.90
33269;DHT22;19640;50.944;5.260;2024-01-15T02:53:18;2.00;99.90
33269;DHT22;19640;50.944;5.260;2024-01-15T02:55:44;2.00;99.90
33269;DHT22;19640;50.944;5.260;2024-01-15T02:58:10;1.90;99.90
33269;DHT22;19640;50.944;5.260;2024-01-15T03:00:35;2.10;99.90
33269;DHT22;19640;50.944;5.260;2024-01-15T03:03:01;2.00;99.90
33269;DHT22;19640;50.944;5.260;2024-01-15T03:05:27;2.20;99.90
33269;DHT22;19640;50.944;5.260;2024-01-15T03:07:52;2.40;99.90
33269;DHT22;19640;50.944;5.260;2024-01-15T03:10:18;2.30;99.90
33269;DHT22;19640;50.944;5.260;2024-01-15T03:12:43;2.30;99.90
33269;DHT22;19640;50.944;5.260;2024-01-15T03:15:09;2.50;99.90
33269;DHT22;19640;50.944;5.260;2024-01-15T03:17:35;2.60;99.90
33269;DHT22;19640;50.944;5.260;2024-01-15T03:20:01;2.40;99.90
33269;DHT22;19640;50.944;5.260;2024-01-15T03:22:28;2.40;99.90
33269;DHT22;19640;50.944;5.260;2024-01-15T03:24:54;2.40;99.90
33269;DHT22;19640;50.944;5.260;2024-01-15T03:27:20;2.50;99.90
33269;DHT22;19640;50.944;5.260;2024-01-15T03:29:45;2.20;99.90
33269;DHT22;19640;50.944;5.260;2024-01-15T03:32:11;2.30;99.90
33269;DHT22;19640;50.944;5.260;2024-01-15T03:34:37;2.50;99.90
33269;DHT22;19640;50.944;5.260;2024-01-15T03:37:02;2.50;99.90
33269;DHT22;19640;50.944;5.260;2024-01-15T03:39:29;2.40;99.90
33269;DHT22;19640;50.944;5.260;2024-01-15T03:41:55;2.20;99.90
33269;DHT22;19640;50.944;5.260;2024-01-15T03:44:21;2.40;99.90
33269;DHT22;19640;50.944;5.260;2024-01-15T03:46:46;2.50;99.90
33269;DHT22;19640;50.944;5.260;2024-01-15T03:49:12;2.50;99.90
33269;DHT22;19640;50.944;5.260;2024-01-15T03:51:38;2.20;99.90
33269;DHT22;19640;50.944;5.260;2024-01-15T03:54:04;2.20;99.90
33269;DHT22;19640;50.944;5.260;2024-01-15T03:56:29;2.20;99.90
33269;DHT22;19640;50.944;5.260;2024-01-15T03:58:55;2.10;99.90
33269;DHT22;19640;50.944;5.260;2024-01-15T04:01:21;2.10;99.90
33269;DHT22;19640;50.944;5.260;2024-01-15T04:03:46;2.20;99.90
33269;DHT22;19640;50.944;5.260;2024-01-15T04:06:12;2.10;99.90
33269;DHT22;19640;50.944;5.260;2024-01-15T04:08:37;2.20;99.90
33269;DHT22;19640;50.944;5.260;2024-01-15T04:11:03;2.40;99.90
33269;DHT22;19640;50.944;5.260;2024-01-15T04:13:32;2.20;99.90
33269;DHT22;19640;50.944;5.260;2024-01-15T04:15:58;2.20;99.90
33269;DHT22;19640;50.944;5.260;2024-01-15T04:18:23;2.30;99.90
33269;DHT22;19640;50.944;5.260;2024-01-15T04:20:49;2.20;99.90
33269;DHT22;19640;50.944;5.260;2024-01-15T04:23:15;2.20;99.90
33269;DHT22;19640;50.944;5.260;2024-01-15T04:25:40;2.00;99.90
33269;DHT22;19640;50.944;5.260;2024-01-15T04:28:08;1.90;99.90
33269;DHT22;19640;50.944;5.260;2024-01-15T04:30:34;2.00;99.90
33269;DHT22;19640;50.944;5.260;2024-01-15T04:33:00;2.20;99.90
33269;DHT22;19640;50.944;5.260;2024-01-15T04:35:25;2.30;99.90
33269;DHT22;19640;50.944;5.260;2024-01-15T04:37:52;2.10;99.90
33269;DHT22;19640;50.944;5.260;2024-01-15T04:40:17;2.10;99.90
33269;DHT22;19640;50.944;5.260;2024-01-15T04:42:43;2.10;99.90
33269;DHT22;19640;50.944;5.260;2024-01-15T04:45:11;2.10;99.90
33269;DHT22;19640;50.944;5.260;2024-01-15T04:47:37;1.90;99.90
33269;DHT22;19640;50.944;5.260;2024-01-15T04:50:03;1.80;99.90
33269;DHT22;19640;50.944;5.260;2024-01-15T04:52:29;1.90;99.90
33269;DHT22;19640;50.944;5.260;2024-01-15T04:54:55;2.00;99.90
33269;DHT22;19640;50.944;5.260;2024-01-15T04:57:21;1.90;99.90
33269;DHT22;19640;50.944;5.260;2024-01-15T04:59:46;2.00;99.90
33269;DHT22;19640;50.944;5.260;2024-01-15T05:02:12;1.90;99.90
33269;DHT22;19640;50.944;5.260;2024-01-15T05:04:37;1.90;99.90
33269;DHT22;19640;50.944;5.260;2024-01-15T05:07:03;2.20;99.90
33269;DHT22;19640;50.944;5.260;2024-01-15T05:09:29;2.10;99.90
33269;DHT22;19640;50.944;5.260;2024-01-15T05:11:54;2.30;99.90
33269;DHT22;19640;50.944;5.260;2024-01-15T05:14:20;2.40;99.90
33269;DHT22;19640;50.944;5.260;2024-01-15T05:16:49;2.30;99.90
33269;DHT22;19640;50.944;5.260;2024-01-15T05:19:16;2.10;99.90
33269;DHT22;19640;50.944;5.260;2024-01-15T05:21:41;2.00;99.90
33269;DHT22;19640;50.944;5.260;2024-01-15T05:24:08;2.00;99.90
33269;DHT22;19640;50.944;5.260;2024-01-15T05:26:34;2.20;99.90
33269;DHT22;19640;50.944;5.260;2024-01-15T05:28:59;2.10;99.90
33269;DHT22;19640;50.944;5.260;2024-01-15T05:31:25;2.00;99.90
33269;DHT22;19640;50.944;5.260;2024-01-15T05:33:51;2.00;99.90
33269;DHT22;19640;50.944;5.260;2024-01-15T05:36:16;1.90;99.90
33269;DHT22;19640;50.944;5.260;2024-01-15T05:38:42;1.90;99.90
33269;DHT22;19640;50.944;5.260;2024-01-15T05:41:08;2.00;99.90
33269;DHT22;19640;50.944;5.260;2024-01-15T05:43:34;2.00;99.90
33269;DHT22;19640;50.944;5.260;2024-01-15T05:45:59;2.00;99.90
33269;DHT22;19640;50.944;5.260;2024-01-15T05:48:25;2.00;99.90
33269;DHT22;19640;50.944;5.260;2024-01-15T05:50:50;1.90;99.90
33269;DHT22;19640;50.944;5.260;2024-01-15T05:53:16;1.90;99.90
33269;DHT22;19640;50.944;5.260;2024-01-15T05:55:42;1.90;99.90
33269;DHT22;19640;50.944;5.260;2024-01-15T05:58:07;1.80;99.90
33269;DHT22;19640;50.944;5.260;2024-01-15T06:00:33;1.70;99.90
33269;DHT22;19640;50.944;5.260;2024-01-15T06:03:00;1.70;99.90
33269;DHT22;19640;50.944;5.260;2024-01-15T06:05:26;1.80;99.90
33269;DHT22;19640;50.944;5.260;2024-01-15T06:07:52;1.80;99.90
33269;DHT22;19640;50.944;5.260;2024-01-15T06:10:18;1.60;99.90
33269;DHT22;19640;50.944;5.260;2024-01-15T06:12:44;1.60;99.90
33269;DHT22;19640;50.944;5.260;2024-01-15T06:15:10;1.80;99.90
33269;DHT22;19640;50.944;5.260;2024-01-15T06:17:36;1.70;99.90
33269;DHT22;19640;50.944;5.260;2024-01-15T06:20:02;1.80;99.90
33269;DHT22;19640;50.944;5.260;2024-01-15T06:22:28;1.70;99.90
33269;DHT22;19640;50.944;5.260;2024-01-15T06:24:54;1.60;99.90
33269;DHT22;19640;50.944;5.260;2024-01-15T06:27:21;1.60;99.90
33269;DHT22;19640;50.944;5.260;2024-01-15T06:29:47;1.50;99.90
33269;DHT22;19640;50.944;5.260;2024-01-15T06:32:13;1.30;99.90
33269;DHT22;19640;50.944;5.260;2024-01-15T06:34:38;1.30;99.90
33269;DHT22;19640;50.944;5.260;2024-01-15T06:37:04;1.40;99.90
33269;DHT22;19640;50.944;5.260;2024-01-15T06:39:30;1.50;99.90
33269;DHT22;19640;50.944;5.260;2024-01-15T06:41:56;1.60;99.90
33269;DHT22;19640;50.944;5.260;2024-01-15T06:44:21;1.60;99.90
33269;DHT22;19640;50.944;5.260;2024-01-15T06:46:47;1.90;99.90
33269;DHT22;19640;50.944;5.260;2024-01-15T06:49:13;1.90;99.90
33269;DHT22;19640;50.944;5.260;2024-01-15T06:51:40;1.90;99.90
33269;DHT22;19640;50.944;5.260;2024-01-15T06:54:05;1.70;99.90
33269;DHT22;19640;50.944;5.260;2024-01-15T06:56:32;1.60;99.90
33269;DHT22;19640;50.944;5.260;2024-01-15T06:58:57;1.70;99.90
33269;DHT22;19640;50.944;5.260;2024-01-15T07:01:23;1.80;99.90
33269;DHT22;19640;50.944;5.260;2024-01-15T07:03:49;1.80;99.90
33269;DHT22;19640;50.944;5.260;2024-01-15T07:06:15;1.90;99.90
33269;DHT22;19640;50.944;5.260;2024-01-15T07:08:41;1.80;99.90
33269;DHT22;19640;50.944;5.260;2024-01-15T07:11:07;1.70;99.90
33269;DHT22;19640;50.944;5.260;2024-01-15T07:13:33;1.80;99.90
33269;DHT22;19640;50.944;5.260;2024-01-15T07:15:59;2.00;99.90
33269;DHT22;19640;50.944;5.260;2024-01-15T07:18:25;2.10;99.90
33269;DHT22;19640;50.944;5.260;2024-01-15T07:20:51;2.10;99.90
33269;DHT22;19640;50.944;5.260;2024-01-15T07:23:17;2.10;99.90
33269;DHT22;19640;50.944;5.260;2024-01-15T07:25:43;2.20;99.90
33269;DHT22;19640;50.944;5.260;2024-01-15T07:28:09;2.40;99.90
33269;DHT22;19640;50.944;5.260;2024-01-15T07:30:34;2.30;99.90
33269;DHT22;19640;50.944;5.260;2024-01-15T07:33:00;2.40;99.90
33269;DHT22;19640;50.944;5.260;2024-01-15T07:35:26;2.30;99.90
33269;DHT22;19640;50.944;5.260;2024-01-15T07:37:52;2.20;99.90
33269;DHT22;19640;50.944;5.260;2024-01-15T07:40:17;2.20;99.90
33269;DHT22;19640;50.944;5.260;2024-01-15T07:42:43;2.40;99.90
33269;DHT22;19640;50.944;5.260;2024-01-15T07:45:10;2.60;99.90
33269;DHT22;19640;50.944;5.260;2024-01-15T07:47:36;2.50;99.90
33269;DHT22;19640;50.944;5.260;2024-01-15T07:50:01;2.50;99.90
33269;DHT22;19640;50.944;5.260;2024-01-15T07:52:27;2.50;99.90
33269;DHT22;19640;50.944;5.260;2024-01-15T07:54:53;2.60;99.90
33269;DHT22;19640;50.944;5.260;2024-01-15T07:57:18;2.60;99.90
33269;DHT22;19640;50.944;5.260;2024-01-15T07:59:44;2.50;99.90
33269;DHT22;19640;50.944;5.260;2024-01-15T08:02:10;2.30;99.90
33269;DHT22;19640;50.944;5.260;2024-01-15T08:04:37;2.30;99.90
33269;DHT22;19640;50.944;5.260;2024-01-15T08:07:04;2.40;99.90
33269;DHT22;19640;50.944;5.260;2024-01-15T08:09:31;2.50;99.90
33269;DHT22;19640;50.944;5.260;2024-01-15T08:11:56;2.60;99.90
33269;DHT22;19640;50.944;5.260;2024-01-15T08:14:22;2.70;99.90
33269;DHT22;19640;50.944;5.260;2024-01-15T08:16:48;2.90;99.90
33269;DHT22;19640;50.944;5.260;2024-01-15T08:19:13;2.90;99.90
33269;DHT22;19640;50.944;5.260;2024-01-15T08:21:40;2.70;99.90
33269;DHT22;19640;50.944;5.260;2024-01-15T08:24:06;2.70;99.90
33269;DHT22;19640;50.944;5.260;2024-01-15T08:26:32;2.60;99.90
33269;DHT22;19640;50.944;5.260;2024-01-15T08:28:58;2.40;99.90
33269;DHT22;19640;50.944;5.260;2024-01-15T08:31:24;2.30;99.90
33269;DHT22;19640;50.944;5.260;2024-01-15T08:33:50;2.30;99.90
33269;DHT22;19640;50.944;5.260;2024-01-15T08:36:15;2.60;99.90
33269;DHT22;19640;50.944;5.260;2024-01-15T08:38:42;2.70;99.90
33269;DHT22;19640;50.944;5.260;2024-01-15T08:41:08;2.80;99.90
33269;DHT22;19640;50.944;5.260;2024-01-15T08:43:34;2.40;99.90
33269;DHT22;19640;50.944;5.260;2024-01-15T08:46:00;2.40;99.90
33269;DHT22;19640;50.944;5.260;2024-01-15T08:48:26;2.40;99.90
33269;DHT22;19640;50.944;5.260;2024-01-15T08:50:53;2.40;99.90
33269;DHT22;19640;50.944;5.260;2024-01-15T08:53:20;2.30;99.90
33269;DHT22;19640;50.944;5.260;2024-01-15T08:55:46;2.40;99.90
33269;DHT22;19640;50.944;5.260;2024-01-15T08:58:11;2.20;99.90
33269;DHT22;19640;50.944;5.260;2024-01-15T09:00:37;2.20;99.90
33269;DHT22;19640;50.944;5.260;2024-01-15T09:03:03;2.10;99.90
33269;DHT22;19640;50.944;5.260;2024-01-15T09:05:29;2.00;99.90
33269;DHT22;19640;50.944;5.260;2024-01-15T09:07:55;2.00;99.90
33269;DHT22;19640;50.944;5.260;2024-01-15T09:10:21;2.10;99.90
33269;DHT22;19640;50.944;5.260;2024-01-15T09:12:47;1.90;99.90
33269;DHT22;19640;50.944;5.260;2024-01-15T09:15:14;1.80;99.90
33269;DHT22;19640;50.944;5.260;2024-01-15T09:17:40;1.90;99.90
33269;DHT22;19640;50.944;5.260;2024-01-15T09:20:08;2.00;99.90
33269;DHT22;19640;50.944;5.260;2024-01-15T09:22:34;2.10;99.90
33269;DHT22;19640;50.944;5.260;2024-01-15T09:24:59;2.10;99.90
33269;DHT22;19640;50.944;5.260;2024-01-15T09:27:25;2.00;99.90
33269;DHT22;19640;50.944;5.260;2024-01-15T09:29:54;2.10;99.90
33269;DHT22;19640;50.944;5.260;2024-01-15T09:32:20;2.00;99.90
33269;DHT22;19640;50.944;5.260;2024-01-15T09:34:48;2.10;99.90
33269;DHT22;19640;50.944;5.260;2024-01-15T09:37:14;2.10;99.90
33269;DHT22;19640;50.944;5.260;2024-01-15T09:39:41;2.10;99.90
33269;DHT22;19640;50.944;5.260;2024-01-15T09:42:07;2.20;99.90
33269;DHT22;19640;50.944;5.260;2024-01-15T09:44:33;2.20;99.90
33269;DHT22;19640;50.944;5.260;2024-01-15T09:46:59;2.40;99.90
33269;DHT22;19640;50.944;5.260;2024-01-15T09:49:25;2.50;99.90
33269;DHT22;19640;50.944;5.260;2024-01-15T09:51:51;2.50;99.90
33269;DHT22;19640;50.944;5.260;2024-01-15T09:54:17;2.70;99.90
33269;DHT22;19640;50.944;5.260;2024-01-15T09:56:46;2.80;99.90
33269;DHT22;19640;50.944;5.260;2024-01-15T09:59:18;2.80;99.90
33269;DHT22;19640;50.944;5.260;2024-01-15T10:01:45;3.10;99.90
33269;DHT22;19640;50.944;5.260;2024-01-15T10:04:11;3.00;99.90
33269;DHT22;19640;50.944;5.260;2024-01-15T10:06:45;3.00;99.90
33269;DHT22;19640;50.944;5.260;2024-01-15T10:09:12;3.00;99.90
33269;DHT22;19640;50.944;5.260;2024-01-15T10:11:42;3.30;99.90
33269;DHT22;19640;50.944;5.260;2024-01-15T10:14:10;3.20;99.90
33269;DHT22;19640;50.944;5.260;2024-01-15T10:16:38;3.30;99.90
33269;DHT22;19640;50.944;5.260;2024-01-15T10:19:04;3.20;99.90
33269;DHT22;19640;50.944;5.260;2024-01-15T10:21:32;3.20;99.90
33269;DHT22;19640;50.944;5.260;2024-01-15T10:24:02;3.10;99.90
33269;DHT22;19640;50.944;5.260;2024-01-15T10:26:31;3.00;99.90
33269;DHT22;19640;50.944;5.260;2024-01-15T10:29:00;3.20;99.90
33269;DHT22;19640;50.944;5.260;2024-01-15T10:31:26;3.30;99.90
33269;DHT22;19640;50.944;5.260;2024-01-15T10:33:52;3.40;99.90
33269;DHT22;19640;50.944;5.260;2024-01-15T10:36:18;3.50;99.90
33269;DHT22;19640;50.944;5.260;2024-01-15T10:38:45;3.50;99.90
33269;DHT22;19640;50.944;5.260;2024-01-15T10:41:11;3.40;99.90
33269;DHT22;19640;50.944;5.260;2024-01-15T10:43:37;3.20;99.90
33269;DHT22;19640;50.944;5.260;2024-01-15T10:46:03;3.10;99.90
33269;DHT22;19640;50.944;5.260;2024-01-15T10:48:29;3.30;99.90
33269;DHT22;19640;50.944;5.260;2024-01-15T10:50:57;3.50;99.90
33269;DHT22;19640;50.944;5.260;2024-01-15T10:53:24;3.50;99.90
33269;DHT22;19640;50.944;5.260;2024-01-15T10:55:53;3.50;99.90
33269;DHT22;19640;50.944;5.260;2024-01-15T10:58:20;3.50;99.90
33269;DHT22;19640;50.944;5.260;2024-01-15T11:00:50;3.60;99.90
33269;DHT22;19640;50.944;5.260;2024-01-15T11:03:16;3.70;99.90
33269;DHT22;19640;50.944;5.260;2024-01-15T11:05:44;3.80;99.90
33269;DHT22;19640;50.944;5.260;2024-01-15T11:08:10;4.00;99.90
33269;DHT22;19640;50.944;5.260;2024-01-15T11:10:43;4.10;99.90
33269;DHT22;19640;50.944;5.260;2024-01-15T11:13:22;4.30;99.90
33269;DHT22;19640;50.944;5.260;2024-01-15T11:16:05;4.30;99.90
33269;DHT22;19640;50.944;5.260;2024-01-15T11:18:39;4.40;99.90
33269;DHT22;19640;50.944;5.260;2024-01-15T11:34:50;4.00;99.90
33269;DHT22;19640;50.944;5.260;2024-01-15T11:37:16;3.90;99.90
33269;DHT22;19640;50.944;5.260;2024-01-15T11:39:42;3.70;99.90
33269;DHT22;19640;50.944;5.260;2024-01-15T11:42:10;3.20;99.90
33269;DHT22;19640;50.944;5.260;2024-01-15T11:44:37;2.90;99.90
33269;DHT22;19640;50.944;5.260;2024-01-15T11:47:05;2.70;99.90
33269;DHT22;19640;50.944;5.260;2024-01-15T11:50:03;2.40;99.90
33269;DHT22;19640;50.944;5.260;2024-01-15T11:55:12;2.20;99.90
33269;DHT22;19640;50.944;5.260;2024-01-15T11:57:46;2.20;99.90
33269;DHT22;19640;50.944;5.260;2024-01-15T12:00:13;2.20;99.90
33269;DHT22;19640;50.944;5.260;2024-01-15T12:02:43;2.20;99.90
33269;DHT22;19640;50.944;5.260;2024-01-15T12:05:10;2.10;99.90
33269;DHT22;19640;50.944;5.260;2024-01-15T12:07:38;2.10;99.90
33269;DHT22;19640;50.944;5.260;2024-01-15T12:10:11;2.10;99.90
33269;DHT22;19640;50.944;5.260;2024-01-15T12:15:11;2.10;99.90
33269;DHT22;19640;50.944;5.260;2024-01-15T12:17:38;2.10;99.90
33269;DHT22;19640;50.944;5.260;2024-01-15T12:20:04;2.20;99.90
33269;DHT22;19640;50.944;5.260;2024-01-15T12:22:30;2.20;99.90
33269;DHT22;19640;50.944;5.260;2024-01-15T12:24:56;2.20;99.90
33269;DHT22;19640;50.944;5.260;2024-01-15T12:27:23;2.00;99.90
33269;DHT22;19640;50.944;5.260;2024-01-15T12:29:49;1.90;99.90
33269;DHT22;19640;50.944;5.260;2024-01-15T12:32:15;1.80;99.90
33269;DHT22;19640;50.944;5.260;2024-01-15T12:34:41;1.90;99.90
33269;DHT22;19640;50.944;5.260;2024-01-15T12:37:09;1.90;99.90
33269;DHT22;19640;50.944;5.260;2024-01-15T12:39:37;1.90;99.90
33269;DHT22;19640;50.944;5.260;2024-01-15T12:42:03;1.90;99.90
33269;DHT22;19640;50.944;5.260;2024-01-15T12:44:31;1.90;99.90
33269;DHT22;19640;50.944;5.260;2024-01-15T12:46:57;1.90;99.90
33269;DHT22;19640;50.944;5.260;2024-01-15T12:49:24;2.10;99.90
33269;DHT22;19640;50.944;5.260;2024-01-15T12:51:59;2.10;99.90
33269;DHT22;19640;50.944;5.260;2024-01-15T12:54:26;2.20;99.90
33269;DHT22;19640;50.944;5.260;2024-01-15T12:56:52;2.10;99.90
33269;DHT22;19640;50.944;5.260;2024-01-15T12:59:18;2.20;99.90
33269;DHT22;19640;50.944;5.260;2024-01-15T13:01:45;2.20;99.90
33269;DHT22;19640;50.944;5.260;2024-01-15T13:04:12;2.10;99.90
33269;DHT22;19640;50.944;5.260;2024-01-15T13:06:46;2.10;99.90
33269;DHT22;19640;50.944;5.260;2024-01-15T13:09:11;1.90;99.90
33269;DHT22;19640;50.944;5.260;2024-01-15T13:11:37;1.90;99.90
33269;DHT22;19640;50.944;5.260;2024-01-15T13:14:03;2.00;99.90
33269;DHT22;19640;50.944;5.260;2024-01-15T13:16:29;1.90;99.90
33269;DHT22;19640;50.944;5.260;2024-01-15T13:18:55;1.90;99.90
33269;DHT22;19640;50.944;5.260;2024-01-15T13:21:22;1.90;99.90
33269;DHT22;19640;50.944;5.260;2024-01-15T13:23:48;1.90;99.90
33269;DHT22;19640;50.944;5.260;2024-01-15T13:26:13;1.90;99.90
33269;DHT22;19640;50.944;5.260;2024-01-15T13:28:39;1.90;99.90
33269;DHT22;19640;50.944;5.260;2024-01-15T13:31:05;2.00;99.90
33269;DHT22;19640;50.944;5.260;2024-01-15T13:33:31;2.10;99.90
33269;DHT22;19640;50.944;5.260;2024-01-15T13:35:56;2.10;99.90
33269;DHT22;19640;50.944;5.260;2024-01-15T13:38:22;2.20;99.90
33269;DHT22;19640;50.944;5.260;2024-01-15T13:40:49;2.30;99.90
33269;DHT22;19640;50.944;5.260;2024-01-15T13:43:15;2.20;99.90
33269;DHT22;19640;50.944;5.260;2024-01-15T13:45:41;2.30;99.90
33269;DHT22;19640;50.944;5.260;2024-01-15T13:48:07;2.50;99.90
33269;DHT22;19640;50.944;5.260;2024-01-15T13:50:34;2.50;99.90
33269;DHT22;19640;50.944;5.260;2024-01-15T13:53:01;2.50;99.90
33269;DHT22;19640;50.944;5.260;2024-01-15T13:55:27;2.50;99.90
33269;DHT22;19640;50.944;5.260;2024-01-15T13:57:54;2.30;99.90
33269;DHT22;19640;50.944;5.260;2024-01-15T14:00:20;2.40;99.90
33269;DHT22;19640;50.944;5.260;2024-01-15T14:02:46;2.40;99.90
33269;DHT22;19640;50.944;5.260;2024-01-15T14:05:12;2.40;99.90
33269;DHT22;19640;50.944;5.260;2024-01-15T14:07:38;2.40;99.90
33269;DHT22;19640;50.944;5.260;2024-01-15T14:10:05;2.30;99.90
33269;DHT22;19640;50.944;5.260;2024-01-15T14:12:33;2.30;99.90
33269;DHT22;19640;50.944;5.260;2024-01-15T14:15:00;2.30;99.90
33269;DHT22;19640;50.944;5.260;2024-01-15T14:17:26;2.20;99.90
33269;DHT22;19640;50.944;5.260;2024-01-15T14:19:51;2.20;99.90
33269;DHT22;19640;50.944;5.260;2024-01-15T14:22:17;2.30;99.90
33269;DHT22;19640;50.944;5.260;2024-01-15T14:24:43;2.40;99.90
33269;DHT22;19640;50.944;5.260;2024-01-15T14:27:08;2.40;99.90
33269;DHT22;19640;50.944;5.260;2024-01-15T14:29:35;2.40;99.90
33269;DHT22;19640;50.944;5.260;2024-01-15T14:32:01;2.50;99.90
33269;DHT22;19640;50.944;5.260;2024-01-15T14:34:27;2.40;99.90
33269;DHT22;19640;50.944;5.260;2024-01-15T14:36:53;2.50;99.90
33269;DHT22;19640;50.944;5.260;2024-01-15T14:39:22;2.40;99.90
33269;DHT22;19640;50.944;5.260;2024-01-15T14:41:48;2.30;99.90
33269;DHT22;19640;50.944;5.260;2024-01-15T14:44:14;2.30;99.90
33269;DHT22;19640;50.944;5.260;2024-01-15T14:46:40;2.30;99.90
33269;DHT22;19640;50.944;5.260;2024-01-15T14:49:06;2.30;99.90
33269;DHT22;19640;50.944;5.260;2024-01-15T14:51:31;2.20;99.90
33269;DHT22;19640;50.944;5.260;2024-01-15T14:53:57;2.10;99.90
33269;DHT22;19640;50.944;5.260;2024-01-15T14:56:23;2.20;99.90
33269;DHT22;19640;50.944;5.260;2024-01-15T14:58:49;2.10;99.90
33269;DHT22;19640;50.944;5.260;2024-01-15T15:01:15;2.10;99.90
33269;DHT22;19640;50.944;5.260;2024-01-15T15:03:41;2.20;99.90
33269;DHT22;19640;50.944;5.260;2024-01-15T15:06:07;2.10;99.90
33269;DHT22;19640;50.944;5.260;2024-01-15T15:08:33;2.30;99.90
33269;DHT22;19640;50.944;5.260;2024-01-15T15:11:00;2.30;99.90
33269;DHT22;19640;50.944;5.260;2024-01-15T15:13:26;2.30;99.90
33269;DHT22;19640;50.944;5.260;2024-01-15T15:15:52;2.20;99.90
33269;DHT22;19640;50.944;5.260;2024-01-15T15:18:19;2.10;99.90
33269;DHT22;19640;50.944;5.260;2024-01-15T15:20:45;2.20;99.90
33269;DHT22;19640;50.944;5.260;2024-01-15T15:23:11;2.20;99.90
33269;DHT22;19640;50.944;5.260;2024-01-15T15:25:37;2.30;99.90
33269;DHT22;19640;50.944;5.260;2024-01-15T15:28:03;2.30;99.90
33269;DHT22;19640;50.944;5.260;2024-01-15T15:30:31;2.10;99.90
33269;DHT22;19640;50.944;5.260;2024-01-15T15:32:56;2.10;99.90
33269;DHT22;19640;50.944;5.260;2024-01-15T15:35:22;2.10;99.90
33269;DHT22;19640;50.944;5.260;2024-01-15T15:37:48;2.00;99.90
33269;DHT22;19640;50.944;5.260;2024-01-15T15:40:14;2.10;99.90
33269;DHT22;19640;50.944;5.260;2024-01-15T15:42:39;2.00;99.90
33269;DHT22;19640;50.944;5.260;2024-01-15T15:45:05;2.10;99.90
33269;DHT22;19640;50.944;5.260;2024-01-15T15:47:32;2.10;99.90
33269;DHT22;19640;50.944;5.260;2024-01-15T15:50:00;2.10;99.90
33269;DHT22;19640;50.944;5.260;2024-01-15T15:52:26;2.20;99.90
33269;DHT22;19640;50.944;5.260;2024-01-15T15:54:52;1.90;99.90
33269;DHT22;19640;50.944;5.260;2024-01-15T15:57:17;1.90;99.90